sensor_id;sensor_type;location;lat;lon;timestamp;P1;durP1;ratioP1;P2;durP2;ratioP2
5730;SDS011;2890;51.950;7.668;2023-07-08T00:01:25;4.60;;;3.70;;
5730;SDS011;2890;51.950;7.668;2023-07-08T00:03:51;3.93;;;3.53;;
5730;SDS011;2890;51.950;7.668;2023-07-08T00:06:18;3.70;;;3.40;;
5730;SDS011;2890;51.950;7.668;2023-07-08T00:08:46;3.50;;;3.20;;
5730;SDS011;2890;51.950;7.668;2023-07-08T00:11:13;5.70;;;3.30;;
5730;SDS011;2890;51.950;7.668;2023-07-08T00:13:41;4.13;;;3.10;;
5730;SDS011;2890;51.950;7.668;2023-07-08T00:16:08;3.67;;;3.37;;
5730;SDS011;2890;51.950;7.668;2023-07-08T00:18:38;4.00;;;3.43;;
5730;SDS011;2890;51.950;7.668;2023-07-08T00:21:07;3.83;;;3.53;;
5730;SDS011;2890;51.950;7.668;2023-07-08T00:23:35;3.80;;;3.50;;
5730;SDS011;2890;51.950;7.668;2023-07-08T00:26:02;3.70;;;3.40;;
5730;SDS011;2890;51.950;7.668;2023-07-08T00:28:30;3.97;;;3.27;;
5730;SDS011;2890;51.950;7.668;2023-07-08T00:30:57;4.37;;;3.97;;
5730;SDS011;2890;51.950;7.668;2023-07-08T00:33:23;3.77;;;3.40;;
5730;SDS011;2890;51.950;7.668;2023-07-08T00:35:51;3.97;;;3.63;;
5730;SDS011;2890;51.950;7.668;2023-07-08T00:38:20;4.50;;;4.03;;
5730;SDS011;2890;51.950;7.668;2023-07-08T00:40:52;5.50;;;3.33;;
5730;SDS011;2890;51.950;7.668;2023-07-08T00:43:24;4.20;;;3.90;;
5730;SDS011;2890;51.950;7.668;2023-07-08T00:46:01;3.53;;;3.23;;
5730;SDS011;2890;51.950;7.668;2023-07-08T00:48:38;6.70;;;3.90;;
5730;SDS011;2890;51.950;7.668;2023-07-08T00:51:08;3.93;;;3.63;;
5730;SDS011;2890;51.950;7.668;2023-07-08T00:53:36;4.87;;;3.80;;
5730;SDS011;2890;51.950;7.668;2023-07-08T00:56:04;3.77;;;3.43;;
5730;SDS011;2890;51.950;7.668;2023-07-08T00:58:35;4.70;;;3.53;;
5730;SDS011;2890;51.950;7.668;2023-07-08T01:01:06;4.30;;;3.90;;
5730;SDS011;2890;51.950;7.668;2023-07-08T01:03:33;5.83;;;3.80;;
5730;SDS011;2890;51.950;7.668;2023-07-08T01:06:02;3.93;;;3.63;;
5730;SDS011;2890;51.950;7.668;2023-07-08T01:08:32;5.67;;;4.00;;
5730;SDS011;2890;51.950;7.668;2023-07-08T01:11:00;3.57;;;3.30;;
5730;SDS011;2890;51.950;7.668;2023-07-08T01:13:29;4.67;;;4.27;;
5730;SDS011;2890;51.950;7.668;2023-07-08T01:15:59;4.17;;;3.60;;
5730;SDS011;2890;51.950;7.668;2023-07-08T01:18:25;5.40;;;4.33;;
5730;SDS011;2890;51.950;7.668;2023-07-08T01:20:52;4.87;;;3.63;;
5730;SDS011;2890;51.950;7.668;2023-07-08T01:23:21;6.60;;;3.60;;
5730;SDS011;2890;51.950;7.668;2023-07-08T01:25:48;4.17;;;3.73;;
5730;SDS011;2890;51.950;7.668;2023-07-08T01:28:15;4.40;;;4.00;;
5730;SDS011;2890;51.950;7.668;2023-07-08T01:30:42;4.17;;;3.80;;
5730;SDS011;2890;51.950;7.668;2023-07-08T01:33:12;4.10;;;3.80;;
5730;SDS011;2890;51.950;7.668;2023-07-08T01:35:42;4.70;;;4.03;;
5730;SDS011;2890;51.950;7.668;2023-07-08T01:38:10;4.60;;;3.50;;
5730;SDS011;2890;51.950;7.668;2023-07-08T01:40:47;4.37;;;3.70;;
5730;SDS011;2890;51.950;7.668;2023-07-08T01:43:14;4.40;;;4.03;;
5730;SDS011;2890;51.950;7.668;2023-07-08T01:45:41;3.70;;;3.50;;
5730;SDS011;2890;51.950;7.668;2023-07-08T01:48:10;5.23;;;3.90;;
5730;SDS011;2890;51.950;7.668;2023-07-08T01:50:38;4.20;;;3.80;;
5730;SDS011;2890;51.950;7.668;2023-07-08T01:53:09;5.23;;;3.80;;
5730;SDS011;2890;51.950;7.668;2023-07-08T01:55:38;3.77;;;3.50;;
5730;SDS011;2890;51.950;7.668;2023-07-08T01:58:05;4.60;;;4.30;;
5730;SDS011;2890;51.950;7.668;2023-07-08T02:00:31;4.53;;;4.23;;
5730;SDS011;2890;51.950;7.668;2023-07-08T02:02:58;4.43;;;4.03;;
5730;SDS011;2890;51.950;7.668;2023-07-08T02:05:25;5.10;;;4.70;;
5730;SDS011;2890;51.950;7.668;2023-07-08T02:07:51;4.80;;;4.30;;
5730;SDS011;2890;51.950;7.668;2023-07-08T02:10:18;4.10;;;3.70;;
5730;SDS011;2890;51.950;7.668;2023-07-08T02:12:46;4.20;;;3.80;;
5730;SDS011;2890;51.950;7.668;2023-07-08T02:15:12;4.30;;;4.00;;
5730;SDS011;2890;51.950;7.668;2023-07-08T02:17:39;11.93;;;3.87;;
5730;SDS011;2890;51.950;7.668;2023-07-08T02:20:05;4.40;;;3.63;;
5730;SDS011;2890;51.950;7.668;2023-07-08T02:22:33;4.17;;;3.80;;
5730;SDS011;2890;51.950;7.668;2023-07-08T02:25:01;4.43;;;4.07;;
5730;SDS011;2890;51.950;7.668;2023-07-08T02:27:28;4.33;;;3.73;;
5730;SDS011;2890;51.950;7.668;2023-07-08T02:29:56;6.37;;;4.23;;
5730;SDS011;2890;51.950;7.668;2023-07-08T02:32:22;4.07;;;3.77;;
5730;SDS011;2890;51.950;7.668;2023-07-08T02:34:49;5.37;;;4.63;;
5730;SDS011;2890;51.950;7.668;2023-07-08T02:37:17;5.17;;;4.40;;
5730;SDS011;2890;51.950;7.668;2023-07-08T02:39:43;4.53;;;4.23;;
5730;SDS011;2890;51.950;7.668;2023-07-08T02:42:10;5.20;;;4.07;;
5730;SDS011;2890;51.950;7.668;2023-07-08T02:44:36;4.10;;;3.77;;
5730;SDS011;2890;51.950;7.668;2023-07-08T02:47:04;5.80;;;3.83;;
5730;SDS011;2890;51.950;7.668;2023-07-08T02:49:31;4.30;;;4.00;;
5730;SDS011;2890;51.950;7.668;2023-07-08T02:51:57;4.50;;;4.20;;
5730;SDS011;2890;51.950;7.668;2023-07-08T02:54:24;5.43;;;4.70;;
5730;SDS011;2890;51.950;7.668;2023-07-08T02:56:50;4.47;;;4.17;;
5730;SDS011;2890;51.950;7.668;2023-07-08T02:59:16;4.70;;;4.40;;
5730;SDS011;2890;51.950;7.668;2023-07-08T03:01:43;4.43;;;3.97;;
5730;SDS011;2890;51.950;7.668;2023-07-08T03:04:13;4.33;;;3.93;;
5730;SDS011;2890;51.950;7.668;2023-07-08T03:06:40;7.50;;;3.53;;
5730;SDS011;2890;51.950;7.668;2023-07-08T03:09:06;7.30;;;4.77;;
5730;SDS011;2890;51.950;7.668;2023-07-08T03:11:33;4.00;;;3.70;;
5730;SDS011;2890;51.950;7.668;2023-07-08T03:14:00;4.07;;;3.77;;
5730;SDS011;2890;51.950;7.668;2023-07-08T03:16:27;3.70;;;3.43;;
5730;SDS011;2890;51.950;7.668;2023-07-08T03:18:53;11.37;;;3.87;;
5730;SDS011;2890;51.950;7.668;2023-07-08T03:21:21;4.30;;;4.00;;
5730;SDS011;2890;51.950;7.668;2023-07-08T03:23:48;4.03;;;3.63;;
5730;SDS011;2890;51.950;7.668;2023-07-08T03:26:14;4.53;;;4.23;;
5730;SDS011;2890;51.950;7.668;2023-07-08T03:28:42;4.20;;;3.90;;
5730;SDS011;2890;51.950;7.668;2023-07-08T03:31:09;4.20;;;3.90;;
5730;SDS011;2890;51.950;7.668;2023-07-08T03:33:36;4.10;;;3.80;;
5730;SDS011;2890;51.950;7.668;2023-07-08T03:36:03;6.00;;;4.10;;
5730;SDS011;2890;51.950;7.668;2023-07-08T03:38:31;4.27;;;3.90;;
5730;SDS011;2890;51.950;7.668;2023-07-08T03:40:58;6.03;;;3.97;;
5730;SDS011;2890;51.950;7.668;2023-07-08T03:43:24;10.20;;;3.73;;
5730;SDS011;2890;51.950;7.668;2023-07-08T03:45:51;5.63;;;3.97;;
5730;SDS011;2890;51.950;7.668;2023-07-08T03:48:17;5.90;;;4.17;;
5730;SDS011;2890;51.950;7.668;2023-07-08T03:50:44;4.17;;;3.87;;
5730;SDS011;2890;51.950;7.668;2023-07-08T03:53:11;5.60;;;3.53;;
5730;SDS011;2890;51.950;7.668;2023-07-08T03:55:38;3.77;;;3.47;;
5730;SDS011;2890;51.950;7.668;2023-07-08T03:58:05;5.90;;;4.17;;
5730;SDS011;2890;51.950;7.668;2023-07-08T04:00:31;5.30;;;4.00;;
5730;SDS011;2890;51.950;7.668;2023-07-08T04:02:58;5.10;;;4.07;;
5730;SDS011;2890;51.950;7.668;2023-07-08T04:05:24;4.63;;;4.07;;
5730;SDS011;2890;51.950;7.668;2023-07-08T04:07:51;5.60;;;4.30;;
5730;SDS011;2890;51.950;7.668;2023-07-08T04:10:19;5.80;;;4.10;;
5730;SDS011;2890;51.950;7.668;2023-07-08T04:12:47;3.83;;;3.50;;
5730;SDS011;2890;51.950;7.668;2023-07-08T04:15:13;4.40;;;3.80;;
5730;SDS011;2890;51.950;7.668;2023-07-08T04:17:41;5.60;;;4.00;;
5730;SDS011;2890;51.950;7.668;2023-07-08T04:20:10;4.13;;;3.83;;
5730;SDS011;2890;51.950;7.668;2023-07-08T04:22:39;5.43;;;4.87;;
5730;SDS011;2890;51.950;7.668;2023-07-08T04:25:05;4.00;;;3.53;;
5730;SDS011;2890;51.950;7.668;2023-07-08T04:27:32;7.73;;;4.80;;
5730;SDS011;2890;51.950;7.668;2023-07-08T04:30:00;5.30;;;4.10;;
5730;SDS011;2890;51.950;7.668;2023-07-08T04:32:28;4.60;;;4.23;;
5730;SDS011;2890;51.950;7.668;2023-07-08T04:34:54;4.43;;;4.00;;
5730;SDS011;2890;51.950;7.668;2023-07-08T04:37:20;5.43;;;3.77;;
5730;SDS011;2890;51.950;7.668;2023-07-08T04:39:47;6.33;;;3.97;;
5730;SDS011;2890;51.950;7.668;2023-07-08T04:42:14;5.37;;;4.10;;
5730;SDS011;2890;51.950;7.668;2023-07-08T04:44:42;5.73;;;4.30;;
5730;SDS011;2890;51.950;7.668;2023-07-08T04:47:11;4.40;;;4.10;;
5730;SDS011;2890;51.950;7.668;2023-07-08T04:49:38;5.33;;;4.07;;
5730;SDS011;2890;51.950;7.668;2023-07-08T04:52:05;6.43;;;4.20;;
5730;SDS011;2890;51.950;7.668;2023-07-08T04:54:32;5.73;;;4.00;;
5730;SDS011;2890;51.950;7.668;2023-07-08T04:56:58;6.30;;;4.77;;
5730;SDS011;2890;51.950;7.668;2023-07-08T04:59:25;10.23;;;4.00;;
5730;SDS011;2890;51.950;7.668;2023-07-08T05:01:52;4.80;;;4.40;;
5730;SDS011;2890;51.950;7.668;2023-07-08T05:04:23;4.93;;;4.30;;
5730;SDS011;2890;51.950;7.668;2023-07-08T05:06:49;5.77;;;4.23;;
5730;SDS011;2890;51.950;7.668;2023-07-08T05:09:17;6.30;;;4.10;;
5730;SDS011;2890;51.950;7.668;2023-07-08T05:11:44;4.70;;;4.30;;
5730;SDS011;2890;51.950;7.668;2023-07-08T05:14:11;4.00;;;3.70;;
5730;SDS011;2890;51.950;7.668;2023-07-08T05:16:37;9.03;;;4.77;;
5730;SDS011;2890;51.950;7.668;2023-07-08T05:19:04;3.93;;;3.63;;
5730;SDS011;2890;51.950;7.668;2023-07-08T05:21:32;5.97;;;4.27;;
5730;SDS011;2890;51.950;7.668;2023-07-08T05:23:59;5.00;;;3.93;;
5730;SDS011;2890;51.950;7.668;2023-07-08T05:26:26;6.87;;;4.47;;
5730;SDS011;2890;51.950;7.668;2023-07-08T05:28:55;6.00;;;4.50;;
5730;SDS011;2890;51.950;7.668;2023-07-08T05:31:21;5.33;;;4.50;;
5730;SDS011;2890;51.950;7.668;2023-07-08T05:33:47;4.30;;;4.00;;
5730;SDS011;2890;51.950;7.668;2023-07-08T05:36:14;6.23;;;3.90;;
5730;SDS011;2890;51.950;7.668;2023-07-08T05:38:42;4.93;;;4.43;;
5730;SDS011;2890;51.950;7.668;2023-07-08T05:41:08;13.83;;;4.70;;
5730;SDS011;2890;51.950;7.668;2023-07-08T05:43:35;7.33;;;3.90;;
5730;SDS011;2890;51.950;7.668;2023-07-08T05:46:01;4.37;;;3.80;;
5730;SDS011;2890;51.950;7.668;2023-07-08T05:48:28;4.17;;;3.87;;
5730;SDS011;2890;51.950;7.668;2023-07-08T05:50:55;5.77;;;4.23;;
5730;SDS011;2890;51.950;7.668;2023-07-08T05:53:21;4.07;;;3.77;;
5730;SDS011;2890;51.950;7.668;2023-07-08T05:55:49;4.40;;;4.00;;
5730;SDS011;2890;51.950;7.668;2023-07-08T05:58:16;6.90;;;4.00;;
5730;SDS011;2890;51.950;7.668;2023-07-08T06:00:43;5.90;;;4.40;;
5730;SDS011;2890;51.950;7.668;2023-07-08T06:03:09;9.70;;;4.30;;
5730;SDS011;2890;51.950;7.668;2023-07-08T06:05:36;5.40;;;3.93;;
5730;SDS011;2890;51.950;7.668;2023-07-08T06:08:03;6.53;;;4.23;;
5730;SDS011;2890;51.950;7.668;2023-07-08T06:10:32;4.60;;;3.90;;
5730;SDS011;2890;51.950;7.668;2023-07-08T06:13:00;4.80;;;3.73;;
5730;SDS011;2890;51.950;7.668;2023-07-08T06:15:26;4.23;;;3.57;;
5730;SDS011;2890;51.950;7.668;2023-07-08T06:17:52;7.83;;;3.40;;
5730;SDS011;2890;51.950;7.668;2023-07-08T06:20:19;4.53;;;4.13;;
5730;SDS011;2890;51.950;7.668;2023-07-08T06:22:45;4.47;;;4.00;;
5730;SDS011;2890;51.950;7.668;2023-07-08T06:25:12;4.03;;;3.73;;
5730;SDS011;2890;51.950;7.668;2023-07-08T06:27:38;4.80;;;4.50;;
5730;SDS011;2890;51.950;7.668;2023-07-08T06:30:07;4.50;;;4.20;;
5730;SDS011;2890;51.950;7.668;2023-07-08T06:32:35;5.03;;;4.63;;
5730;SDS011;2890;51.950;7.668;2023-07-08T06:35:01;4.83;;;4.30;;
5730;SDS011;2890;51.950;7.668;2023-07-08T06:37:28;9.10;;;4.70;;
5730;SDS011;2890;51.950;7.668;2023-07-08T06:39:54;4.47;;;4.07;;
5730;SDS011;2890;51.950;7.668;2023-07-08T06:42:21;4.10;;;3.70;;
5730;SDS011;2890;51.950;7.668;2023-07-08T06:44:47;5.97;;;4.30;;
5730;SDS011;2890;51.950;7.668;2023-07-08T06:47:17;4.30;;;3.90;;
5730;SDS011;2890;51.950;7.668;2023-07-08T06:49:44;7.00;;;4.43;;
5730;SDS011;2890;51.950;7.668;2023-07-08T06:52:11;5.83;;;3.83;;
5730;SDS011;2890;51.950;7.668;2023-07-08T06:54:38;5.50;;;4.53;;
5730;SDS011;2890;51.950;7.668;2023-07-08T06:57:04;4.30;;;4.00;;
5730;SDS011;2890;51.950;7.668;2023-07-08T06:59:32;7.63;;;4.37;;
5730;SDS011;2890;51.950;7.668;2023-07-08T07:01:59;4.60;;;4.30;;
5730;SDS011;2890;51.950;7.668;2023-07-08T07:04:27;4.57;;;3.90;;
5730;SDS011;2890;51.950;7.668;2023-07-08T07:06:55;5.07;;;4.20;;
5730;SDS011;2890;51.950;7.668;2023-07-08T07:09:22;6.30;;;4.57;;
5730;SDS011;2890;51.950;7.668;2023-07-08T07:11:48;4.77;;;4.33;;
5730;SDS011;2890;51.950;7.668;2023-07-08T07:14:15;5.73;;;4.40;;
5730;SDS011;2890;51.950;7.668;2023-07-08T07:16:41;4.77;;;4.13;;
5730;SDS011;2890;51.950;7.668;2023-07-08T07:19:08;5.37;;;4.70;;
5730;SDS011;2890;51.950;7.668;2023-07-08T07:21:36;5.73;;;4.77;;
5730;SDS011;2890;51.950;7.668;2023-07-08T07:24:03;4.63;;;4.23;;
5730;SDS011;2890;51.950;7.668;2023-07-08T07:26:32;6.07;;;4.67;;
5730;SDS011;2890;51.950;7.668;2023-07-08T07:28:58;4.60;;;4.30;;
5730;SDS011;2890;51.950;7.668;2023-07-08T07:31:25;5.50;;;4.73;;
5730;SDS011;2890;51.950;7.668;2023-07-08T07:33:51;5.70;;;5.07;;
5730;SDS011;2890;51.950;7.668;2023-07-08T07:36:18;5.10;;;4.60;;
5730;SDS011;2890;51.950;7.668;2023-07-08T07:38:45;4.67;;;4.27;;
5730;SDS011;2890;51.950;7.668;2023-07-08T07:41:12;5.63;;;5.13;;
5730;SDS011;2890;51.950;7.668;2023-07-08T07:43:38;6.30;;;4.83;;
5730;SDS011;2890;51.950;7.668;2023-07-08T07:46:05;5.07;;;4.57;;
5730;SDS011;2890;51.950;7.668;2023-07-08T07:48:33;5.70;;;5.20;;
5730;SDS011;2890;51.950;7.668;2023-07-08T07:50:59;6.50;;;4.60;;
5730;SDS011;2890;51.950;7.668;2023-07-08T07:53:26;5.37;;;4.40;;
5730;SDS011;2890;51.950;7.668;2023-07-08T07:55:57;5.90;;;4.23;;
5730;SDS011;2890;51.950;7.668;2023-07-08T07:58:24;5.37;;;4.97;;
5730;SDS011;2890;51.950;7.668;2023-07-08T08:00:51;5.20;;;4.70;;
5730;SDS011;2890;51.950;7.668;2023-07-08T08:03:18;5.07;;;4.77;;
5730;SDS011;2890;51.950;7.668;2023-07-08T08:05:45;5.10;;;4.70;;
5730;SDS011;2890;51.950;7.668;2023-07-08T08:08:11;7.20;;;5.27;;
5730;SDS011;2890;51.950;7.668;2023-07-08T08:10:40;5.00;;;4.60;;
5730;SDS011;2890;51.950;7.668;2023-07-08T08:13:09;5.33;;;4.93;;
5730;SDS011;2890;51.950;7.668;2023-07-08T08:15:36;5.30;;;5.00;;
5730;SDS011;2890;51.950;7.668;2023-07-08T08:18:03;5.07;;;4.67;;
5730;SDS011;2890;51.950;7.668;2023-07-08T08:20:30;5.60;;;4.80;;
5730;SDS011;2890;51.950;7.668;2023-07-08T08:22:56;5.40;;;5.03;;
5730;SDS011;2890;51.950;7.668;2023-07-08T08:25:23;5.20;;;4.70;;
5730;SDS011;2890;51.950;7.668;2023-07-08T08:27:50;5.93;;;5.60;;
5730;SDS011;2890;51.950;7.668;2023-07-08T08:30:19;6.10;;;5.40;;
5730;SDS011;2890;51.950;7.668;2023-07-08T08:32:45;5.43;;;4.83;;
5730;SDS011;2890;51.950;7.668;2023-07-08T08:35:12;5.60;;;5.17;;
5730;SDS011;2890;51.950;7.668;2023-07-08T08:37:38;5.13;;;4.70;;
5730;SDS011;2890;51.950;7.668;2023-07-08T08:40:05;5.67;;;5.37;;
5730;SDS011;2890;51.950;7.668;2023-07-08T08:42:38;5.70;;;5.20;;
5730;SDS011;2890;51.950;7.668;2023-07-08T08:45:07;5.90;;;5.50;;
5730;SDS011;2890;51.950;7.668;2023-07-08T08:47:39;5.63;;;5.20;;
5730;SDS011;2890;51.950;7.668;2023-07-08T08:50:12;6.00;;;5.50;;
5730;SDS011;2890;51.950;7.668;2023-07-08T08:52:49;6.07;;;5.77;;
5730;SDS011;2890;51.950;7.668;2023-07-08T08:55:16;5.90;;;5.50;;
5730;SDS011;2890;51.950;7.668;2023-07-08T08:57:43;6.35;;;5.82;;
5730;SDS011;2890;51.950;7.668;2023-07-08T09:00:12;5.88;;;5.53;;
5730;SDS011;2890;51.950;7.668;2023-07-08T09:02:45;9.18;;;5.78;;
5730;SDS011;2890;51.950;7.668;2023-07-08T09:05:18;7.03;;;5.72;;
5730;SDS011;2890;51.950;7.668;2023-07-08T09:07:57;7.28;;;5.43;;
5730;SDS011;2890;51.950;7.668;2023-07-08T09:10:31;5.47;;;5.07;;
5730;SDS011;2890;51.950;7.668;2023-07-08T09:13:05;7.72;;;5.90;;
5730;SDS011;2890;51.950;7.668;2023-07-08T09:15:32;6.47;;;5.72;;
5730;SDS011;2890;51.950;7.668;2023-07-08T09:18:03;6.28;;;5.88;;
5730;SDS011;2890;51.950;7.668;2023-07-08T09:20:39;6.47;;;5.97;;
5730;SDS011;2890;51.950;7.668;2023-07-08T09:23:09;6.10;;;5.57;;
5730;SDS011;2890;51.950;7.668;2023-07-08T09:25:45;6.50;;;6.10;;
5730;SDS011;2890;51.950;7.668;2023-07-08T09:28:12;7.63;;;5.88;;
5730;SDS011;2890;51.950;7.668;2023-07-08T09:30:39;7.13;;;6.53;;
5730;SDS011;2890;51.950;7.668;2023-07-08T09:33:08;6.70;;;5.97;;
5730;SDS011;2890;51.950;7.668;2023-07-08T09:35:38;7.45;;;6.78;;
5730;SDS011;2890;51.950;7.668;2023-07-08T09:38:06;7.57;;;7.05;;
5730;SDS011;2890;51.950;7.668;2023-07-08T09:40:33;9.50;;;6.85;;
5730;SDS011;2890;51.950;7.668;2023-07-08T09:43:00;8.85;;;6.63;;
5730;SDS011;2890;51.950;7.668;2023-07-08T09:45:28;6.75;;;6.30;;
5730;SDS011;2890;51.950;7.668;2023-07-08T09:47:56;7.35;;;6.95;;
5730;SDS011;2890;51.950;7.668;2023-07-08T09:50:24;7.22;;;6.68;;
5730;SDS011;2890;51.950;7.668;2023-07-08T09:52:53;8.00;;;7.05;;
5730;SDS011;2890;51.950;7.668;2023-07-08T09:55:22;8.45;;;6.97;;
5730;SDS011;2890;51.950;7.668;2023-07-08T09:57:50;7.80;;;6.55;;
5730;SDS011;2890;51.950;7.668;2023-07-08T10:00:25;7.47;;;6.40;;
5730;SDS011;2890;51.950;7.668;2023-07-08T10:02:54;7.50;;;6.90;;
5730;SDS011;2890;51.950;7.668;2023-07-08T10:05:23;7.20;;;6.53;;
5730;SDS011;2890;51.950;7.668;2023-07-08T10:07:54;7.03;;;6.60;;
5730;SDS011;2890;51.950;7.668;2023-07-08T10:10:22;8.00;;;7.43;;
5730;SDS011;2890;51.950;7.668;2023-07-08T10:12:55;17.17;;;6.88;;
5730;SDS011;2890;51.950;7.668;2023-07-08T10:15:24;7.13;;;6.72;;
5730;SDS011;2890;51.950;7.668;2023-07-08T10:17:55;7.07;;;6.45;;
5730;SDS011;2890;51.950;7.668;2023-07-08T10:20:22;6.95;;;6.43;;
5730;SDS011;2890;51.950;7.668;2023-07-08T10:22:54;7.50;;;6.78;;
5730;SDS011;2890;51.950;7.668;2023-07-08T10:25:28;7.35;;;6.78;;
5730;SDS011;2890;51.950;7.668;2023-07-08T10:28:11;7.40;;;6.65;;
5730;SDS011;2890;51.950;7.668;2023-07-08T10:31:00;7.32;;;6.90;;
5730;SDS011;2890;51.950;7.668;2023-07-08T10:33:38;8.35;;;7.75;;
5730;SDS011;2890;51.950;7.668;2023-07-08T10:36:21;10.75;;;8.10;;
5730;SDS011;2890;51.950;7.668;2023-07-08T10:38:59;7.80;;;7.18;;
5730;SDS011;2890;51.950;7.668;2023-07-08T10:41:35;8.20;;;7.70;;
5730;SDS011;2890;51.950;7.668;2023-07-08T10:44:07;8.18;;;7.38;;
5730;SDS011;2890;51.950;7.668;2023-07-08T10:46:41;7.47;;;6.97;;
5730;SDS011;2890;51.950;7.668;2023-07-08T10:49:24;8.20;;;7.47;;
5730;SDS011;2890;51.950;7.668;2023-07-08T10:51:58;8.23;;;7.45;;
5730;SDS011;2890;51.950;7.668;2023-07-08T10:54:36;8.30;;;7.80;;
5730;SDS011;2890;51.950;7.668;2023-07-08T10:57:12;8.13;;;7.50;;
5730;SDS011;2890;51.950;7.668;2023-07-08T10:59:49;8.65;;;7.82;;
5730;SDS011;2890;51.950;7.668;2023-07-08T11:02:26;7.70;;;7.30;;
5730;SDS011;2890;51.950;7.668;2023-07-08T11:05:10;8.90;;;8.00;;
5730;SDS011;2890;51.950;7.668;2023-07-08T11:07:45;8.07;;;7.63;;
5730;SDS011;2890;51.950;7.668;2023-07-08T11:10:15;9.77;;;9.18;;
5730;SDS011;2890;51.950;7.668;2023-07-08T11:12:44;8.00;;;7.50;;
5730;SDS011;2890;51.950;7.668;2023-07-08T11:15:13;8.80;;;8.00;;
5730;SDS011;2890;51.950;7.668;2023-07-08T11:17:43;9.23;;;8.63;;
5730;SDS011;2890;51.950;7.668;2023-07-08T11:20:14;8.95;;;8.23;;
5730;SDS011;2890;51.950;7.668;2023-07-08T11:22:46;9.20;;;8.38;;
5730;SDS011;2890;51.950;7.668;2023-07-08T11:25:16;8.35;;;7.55;;
5730;SDS011;2890;51.950;7.668;2023-07-08T11:27:44;8.55;;;7.95;;
5730;SDS011;2890;51.950;7.668;2023-07-08T11:30:13;8.70;;;7.90;;
5730;SDS011;2890;51.950;7.668;2023-07-08T11:32:41;9.82;;;7.70;;
5730;SDS011;2890;51.950;7.668;2023-07-08T11:35:13;8.25;;;7.55;;
5730;SDS011;2890;51.950;7.668;2023-07-08T11:37:46;9.07;;;8.37;;
5730;SDS011;2890;51.950;7.668;2023-07-08T11:40:18;8.10;;;7.40;;
5730;SDS011;2890;51.950;7.668;2023-07-08T11:42:47;8.73;;;8.03;;
5730;SDS011;2890;51.950;7.668;2023-07-08T11:45:19;8.83;;;8.10;;
5730;SDS011;2890;51.950;7.668;2023-07-08T11:47:50;8.10;;;7.30;;
5730;SDS011;2890;51.950;7.668;2023-07-08T11:50:19;8.93;;;8.23;;
5730;SDS011;2890;51.950;7.668;2023-07-08T11:52:52;8.73;;;8.20;;
5730;SDS011;2890;51.950;7.668;2023-07-08T11:55:24;10.47;;;8.13;;
5730;SDS011;2890;51.950;7.668;2023-07-08T11:57:54;8.93;;;8.00;;
5730;SDS011;2890;51.950;7.668;2023-07-08T12:00:23;10.40;;;9.23;;
5730;SDS011;2890;51.950;7.668;2023-07-08T12:02:51;11.30;;;7.50;;
5730;SDS011;2890;51.950;7.668;2023-07-08T12:05:28;10.17;;;9.00;;
5730;SDS011;2890;51.950;7.668;2023-07-08T12:08:00;7.53;;;7.10;;
5730;SDS011;2890;51.950;7.668;2023-07-08T12:10:30;8.30;;;7.60;;
5730;SDS011;2890;51.950;7.668;2023-07-08T12:12:59;8.77;;;7.40;;
5730;SDS011;2890;51.950;7.668;2023-07-08T12:15:26;9.33;;;8.43;;
5730;SDS011;2890;51.950;7.668;2023-07-08T12:17:54;8.60;;;7.97;;
5730;SDS011;2890;51.950;7.668;2023-07-08T12:20:22;15.20;;;8.00;;
5730;SDS011;2890;51.950;7.668;2023-07-08T12:22:50;8.70;;;7.90;;
5730;SDS011;2890;51.950;7.668;2023-07-08T12:25:19;9.80;;;9.00;;
5730;SDS011;2890;51.950;7.668;2023-07-08T12:27:47;9.37;;;8.37;;
5730;SDS011;2890;51.950;7.668;2023-07-08T12:30:13;9.13;;;8.47;;
5730;SDS011;2890;51.950;7.668;2023-07-08T12:32:41;10.30;;;8.97;;
5730;SDS011;2890;51.950;7.668;2023-07-08T12:35:13;9.93;;;9.00;;
5730;SDS011;2890;51.950;7.668;2023-07-08T12:37:46;8.87;;;8.27;;
5730;SDS011;2890;51.950;7.668;2023-07-08T12:40:13;8.97;;;8.27;;
5730;SDS011;2890;51.950;7.668;2023-07-08T12:42:41;10.13;;;8.67;;
5730;SDS011;2890;51.950;7.668;2023-07-08T12:45:12;10.67;;;9.13;;
5730;SDS011;2890;51.950;7.668;2023-07-08T12:47:40;9.40;;;8.70;;
5730;SDS011;2890;51.950;7.668;2023-07-08T12:50:07;9.60;;;8.90;;
5730;SDS011;2890;51.950;7.668;2023-07-08T12:52:35;10.80;;;10.00;;
5730;SDS011;2890;51.950;7.668;2023-07-08T12:55:01;11.90;;;9.13;;
5730;SDS011;2890;51.950;7.668;2023-07-08T12:57:28;11.70;;;9.13;;
5730;SDS011;2890;51.950;7.668;2023-07-08T12:59:56;9.10;;;8.30;;
5730;SDS011;2890;51.950;7.668;2023-07-08T13:02:23;10.83;;;9.73;;
5730;SDS011;2890;51.950;7.668;2023-07-08T13:04:56;11.00;;;10.10;;
5730;SDS011;2890;51.950;7.668;2023-07-08T13:07:29;8.80;;;8.10;;
5730;SDS011;2890;51.950;7.668;2023-07-08T13:10:00;9.63;;;8.37;;
5730;SDS011;2890;51.950;7.668;2023-07-08T13:12:27;9.47;;;8.57;;
5730;SDS011;2890;51.950;7.668;2023-07-08T13:14:55;9.43;;;8.77;;
5730;SDS011;2890;51.950;7.668;2023-07-08T13:17:24;12.13;;;8.33;;
5730;SDS011;2890;51.950;7.668;2023-07-08T13:19:51;9.77;;;9.07;;
5730;SDS011;2890;51.950;7.668;2023-07-08T13:22:19;10.27;;;9.47;;
5730;SDS011;2890;51.950;7.668;2023-07-08T13:24:47;8.93;;;8.23;;
5730;SDS011;2890;51.950;7.668;2023-07-08T13:27:16;9.43;;;8.80;;
5730;SDS011;2890;51.950;7.668;2023-07-08T13:29:50;9.97;;;9.00;;
5730;SDS011;2890;51.950;7.668;2023-07-08T13:32:19;8.97;;;8.33;;
5730;SDS011;2890;51.950;7.668;2023-07-08T13:34:48;9.90;;;9.10;;
5730;SDS011;2890;51.950;7.668;2023-07-08T13:37:14;10.27;;;9.40;;
5730;SDS011;2890;51.950;7.668;2023-07-08T13:39:43;10.20;;;9.20;;
5730;SDS011;2890;51.950;7.668;2023-07-08T13:42:10;12.20;;;9.00;;
5730;SDS011;2890;51.950;7.668;2023-07-08T13:44:41;9.60;;;8.80;;
5730;SDS011;2890;51.950;7.668;2023-07-08T13:47:19;10.60;;;9.53;;
5730;SDS011;2890;51.950;7.668;2023-07-08T13:49:47;9.23;;;8.40;;
5730;SDS011;2890;51.950;7.668;2023-07-08T13:52:15;10.37;;;9.67;;
5730;SDS011;2890;51.950;7.668;2023-07-08T13:54:45;10.00;;;9.30;;
5730;SDS011;2890;51.950;7.668;2023-07-08T13:57:15;11.53;;;8.80;;
5730;SDS011;2890;51.950;7.668;2023-07-08T13:59:42;9.23;;;8.33;;
5730;SDS011;2890;51.950;7.668;2023-07-08T14:02:13;9.30;;;8.60;;
5730;SDS011;2890;51.950;7.668;2023-07-08T14:04:43;9.70;;;8.80;;
5730;SDS011;2890;51.950;7.668;2023-07-08T14:07:13;8.93;;;8.10;;
5730;SDS011;2890;51.950;7.668;2023-07-08T14:09:42;9.83;;;9.10;;
5730;SDS011;2890;51.950;7.668;2023-07-08T14:12:10;9.20;;;8.37;;
5730;SDS011;2890;51.950;7.668;2023-07-08T14:14:37;10.37;;;9.47;;
5730;SDS011;2890;51.950;7.668;2023-07-08T14:17:03;10.07;;;9.30;;
5730;SDS011;2890;51.950;7.668;2023-07-08T14:19:31;9.97;;;9.07;;
5730;SDS011;2890;51.950;7.668;2023-07-08T14:22:02;14.23;;;8.83;;
5730;SDS011;2890;51.950;7.668;2023-07-08T14:24:46;9.00;;;8.40;;
5730;SDS011;2890;51.950;7.668;2023-07-08T14:27:12;9.60;;;8.60;;
5730;SDS011;2890;51.950;7.668;2023-07-08T14:29:39;10.27;;;9.33;;
5730;SDS011;2890;51.950;7.668;2023-07-08T14:32:09;9.70;;;9.10;;
5730;SDS011;2890;51.950;7.668;2023-07-08T14:34:37;9.43;;;8.60;;
5730;SDS011;2890;51.950;7.668;2023-07-08T14:37:07;10.20;;;9.30;;
5730;SDS011;2890;51.950;7.668;2023-07-08T14:39:37;9.87;;;8.97;;
5730;SDS011;2890;51.950;7.668;2023-07-08T14:42:04;9.13;;;8.43;;
5730;SDS011;2890;51.950;7.668;2023-07-08T14:44:32;9.93;;;9.10;;
5730;SDS011;2890;51.950;7.668;2023-07-08T14:47:00;8.97;;;8.17;;
5730;SDS011;2890;51.950;7.668;2023-07-08T14:49:27;8.17;;;7.67;;
5730;SDS011;2890;51.950;7.668;2023-07-08T14:51:54;9.20;;;8.40;;
5730;SDS011;2890;51.950;7.668;2023-07-08T14:54:22;9.03;;;8.10;;
5730;SDS011;2890;51.950;7.668;2023-07-08T14:56:48;8.70;;;8.10;;
5730;SDS011;2890;51.950;7.668;2023-07-08T14:59:16;8.87;;;8.17;;
5730;SDS011;2890;51.950;7.668;2023-07-08T15:01:44;8.87;;;8.07;;
5730;SDS011;2890;51.950;7.668;2023-07-08T15:04:11;8.00;;;7.40;;
5730;SDS011;2890;51.950;7.668;2023-07-08T15:06:38;9.67;;;8.97;;
5730;SDS011;2890;51.950;7.668;2023-07-08T15:09:05;12.10;;;11.00;;
5730;SDS011;2890;51.950;7.668;2023-07-08T15:11:34;11.17;;;10.13;;
5730;SDS011;2890;51.950;7.668;2023-07-08T15:14:03;9.97;;;9.07;;
5730;SDS011;2890;51.950;7.668;2023-07-08T15:16:30;10.07;;;9.07;;
5730;SDS011;2890;51.950;7.668;2023-07-08T15:18:56;9.83;;;9.07;;
5730;SDS011;2890;51.950;7.668;2023-07-08T15:21:23;9.77;;;8.77;;
5730;SDS011;2890;51.950;7.668;2023-07-08T15:23:49;11.50;;;10.07;;